sensor_id;sensor_type;location;lat;lon;timestamp;pressure;altitude;pressure_sealevel;temperature;humidity
70015;BME280;57358;51.094;6.760;2023-02-20T00:00:06;102229.22;;;3.71;100.00
70015;BME280;57358;51.094;6.760;2023-02-20T00:02:33;102108.00;;;2.96;100.00
70015;BME280;57358;51.094;6.760;2023-02-20T00:04:59;102225.75;;;3.63;100.00
70015;BME280;57358;51.094;6.760;2023-02-20T00:07:25;102073.41;;;2.78;100.00
70015;BME280;57358;51.094;6.760;2023-02-20T00:09:52;102222.31;;;3.65;100.00
70015;BME280;57358;51.094;6.760;2023-02-20T00:12:18;102169.50;;;3.37;100.00
70015;BME280;57358;51.094;6.760;2023-02-20T00:14:44;102122.75;;;3.03;100.00
70015;BME280;57358;51.094;6.760;2023-02-20T00:17:11;102159.09;;;3.23;100.00
70015;BME280;57358;51.094;6.760;2023-02-20T00:19:37;102138.28;;;3.03;100.00
70015;BME280;57358;51.094;6.760;2023-02-20T00:22:04;102140.03;;;3.09;100.00
70015;BME280;57358;51.094;6.760;2023-02-20T00:24:30;102056.94;;;2.53;100.00
70015;BME280;57358;51.094;6.760;2023-02-20T00:26:56;102052.63;;;2.66;100.00
70015;BME280;57358;51.094;6.760;2023-02-20T00:29:23;102082.91;;;2.78;100.00
70015;BME280;57358;51.094;6.760;2023-02-20T00:31:54;102129.66;;;3.07;100.00
70015;BME280;57358;51.094;6.760;2023-02-20T00:34:22;102031.88;;;2.45;100.00
70015;BME280;57358;51.094;6.760;2023-02-20T00:36:48;102068.22;;;2.65;100.00
70015;BME280;57358;51.094;6.760;2023-02-20T00:39:15;102142.66;;;3.26;100.00
70015;BME280;57358;51.094;6.760;2023-02-20T00:41:41;102115.81;;;3.08;100.00
70015;BME280;57358;51.094;6.760;2023-02-20T00:44:08;102055.25;;;2.75;100.00
70015;BME280;57358;51.094;6.760;2023-02-20T00:46:34;102040.56;;;2.73;100.00
70015;BME280;57358;51.094;6.760;2023-02-20T00:49:01;102146.13;;;3.32;100.00
70015;BME280;57358;51.094;6.760;2023-02-20T00:51:27;102036.25;;;2.69;100.00
70015;BME280;57358;51.094;6.760;2023-02-20T00:53:54;102166.88;;;3.52;100.00
70015;BME280;57358;51.094;6.760;2023-02-20T00:56:20;102134.00;;;3.42;100.00
70015;BME280;57358;51.094;6.760;2023-02-20T00:58:47;102063.94;;;2.97;100.00
70015;BME280;57358;51.094;6.760;2023-02-20T01:01:13;101929.03;;;2.22;100.00
70015;BME280;57358;51.094;6.760;2023-02-20T01:03:43;102154.81;;;3.71;100.00
70015;BME280;57358;51.094;6.760;2023-02-20T01:06:09;102146.13;;;3.74;100.00
70015;BME280;57358;51.094;6.760;2023-02-20T01:08:36;102130.56;;;3.77;100.00
70015;BME280;57358;51.094;6.760;2023-02-20T01:11:03;102063.09;;;3.29;100.00
70015;BME280;57358;51.094;6.760;2023-02-20T01:13:29;102103.75;;;3.66;100.00
70015;BME280;57358;51.094;6.760;2023-02-20T01:15:59;102085.56;;;3.50;100.00
70015;BME280;57358;51.094;6.760;2023-02-20T01:18:25;101994.78;;;3.15;100.00
70015;BME280;57358;51.094;6.760;2023-02-20T01:20:52;102074.31;;;3.65;100.00
70015;BME280;57358;51.094;6.760;2023-02-20T01:23:18;102074.31;;;3.73;100.00
70015;BME280;57358;51.094;6.760;2023-02-20T01:25:45;102105.44;;;3.91;100.00
70015;BME280;57358;51.094;6.760;2023-02-20T01:28:11;102060.47;;;3.58;100.00
70015;BME280;57358;51.094;6.760;2023-02-20T01:30:37;101925.63;;;2.86;100.00
70015;BME280;57358;51.094;6.760;2023-02-20T01:33:04;102101.09;;;3.93;100.00
70015;BME280;57358;51.094;6.760;2023-02-20T01:35:30;102100.22;;;3.97;100.00
70015;BME280;57358;51.094;6.760;2023-02-20T01:37:58;101676.13;;;1.53;100.00
70015;BME280;57358;51.094;6.760;2023-02-20T01:40:26;102087.25;;;3.97;100.00
70015;BME280;57358;51.094;6.760;2023-02-20T01:42:53;102081.19;;;3.95;100.00
70015;BME280;57358;51.094;6.760;2023-02-20T01:47:52;102082.06;;;3.99;100.00
70015;BME280;57358;51.094;6.760;2023-02-20T01:50:44;101974.88;;;3.28;100.00
70015;BME280;57358;51.094;6.760;2023-02-20T01:53:12;102094.19;;;3.95;100.00
70015;BME280;57358;51.094;6.760;2023-02-20T01:55:44;102093.31;;;3.95;100.00
70015;BME280;57358;51.094;6.760;2023-02-20T01:58:17;102089.84;;;3.96;100.00
70015;BME280;57358;51.094;6.760;2023-02-20T02:00:45;102005.13;;;3.44;100.00
70015;BME280;57358;51.094;6.760;2023-02-20T02:03:18;102088.97;;;3.95;100.00
70015;BME280;57358;51.094;6.760;2023-02-20T02:05:48;102052.66;;;3.80;100.00
70015;BME280;57358;51.094;6.760;2023-02-20T02:08:19;102041.41;;;3.76;100.00
70015;BME280;57358;51.094;6.760;2023-02-20T02:11:01;102073.34;;;4.05;100.00
70015;BME280;57358;51.094;6.760;2023-02-20T02:13:29;102040.53;;;3.82;100.00
70015;BME280;57358;51.094;6.760;2023-02-20T02:16:32;102070.75;;;4.06;100.00
70015;BME280;57358;51.094;6.760;2023-02-20T02:24:48;102056.97;;;3.87;100.00
70015;BME280;57358;51.094;6.760;2023-02-20T02:39:15;102042.28;;;3.58;100.00
70015;BME280;57358;51.094;6.760;2023-02-20T02:41:48;102031.91;;;3.62;100.00
70015;BME280;57358;51.094;6.760;2023-02-20T02:44:24;101970.56;;;3.19;100.00
70015;BME280;57358;51.094;6.760;2023-02-20T02:47:02;102029.31;;;3.62;100.00
70015;BME280;57358;51.094;6.760;2023-02-20T02:51:56;102033.63;;;3.72;100.00
70015;BME280;57358;51.094;6.760;2023-02-20T02:54:26;102030.16;;;3.70;100.00
70015;BME280;57358;51.094;6.760;2023-02-20T02:57:22;102019.78;;;3.71;100.00
70015;BME280;57358;51.094;6.760;2023-02-20T02:59:54;101995.59;;;3.52;100.00
70015;BME280;57358;51.094;6.760;2023-02-20T03:02:24;101951.53;;;3.26;100.00
70015;BME280;57358;51.094;6.760;2023-02-20T03:04:53;101927.34;;;3.29;100.00
70015;BME280;57358;51.094;6.760;2023-02-20T03:07:21;101996.44;;;3.62;100.00
70015;BME280;57358;51.094;6.760;2023-02-20T03:09:56;102015.47;;;3.73;100.00
70015;BME280;57358;51.094;6.760;2023-02-20T03:12:26;102022.38;;;3.68;100.00
70015;BME280;57358;51.094;6.760;2023-02-20T03:14:58;102020.66;;;3.66;100.00
70015;BME280;57358;51.094;6.760;2023-02-20T03:17:54;101956.72;;;3.25;100.00
70015;BME280;57358;51.094;6.760;2023-02-20T03:20:28;101964.50;;;3.26;100.00
70015;BME280;57358;51.094;6.760;2023-02-20T03:22:58;101871.22;;;2.74;100.00
70015;BME280;57358;51.094;6.760;2023-02-20T03:25:51;102026.72;;;3.68;100.00
70015;BME280;57358;51.094;6.760;2023-02-20T03:28:31;102017.19;;;3.68;100.00
70015;BME280;57358;51.094;6.760;2023-02-20T03:31:06;102023.25;;;3.69;100.00
70015;BME280;57358;51.094;6.760;2023-02-20T03:34:02;101989.53;;;3.58;100.00
70015;BME280;57358;51.094;6.760;2023-02-20T03:36:54;101971.38;;;3.53;100.00
70015;BME280;57358;51.094;6.760;2023-02-20T03:39:44;101935.09;;;3.27;100.00
70015;BME280;57358;51.094;6.760;2023-02-20T03:42:34;101939.44;;;3.33;100.00
70015;BME280;57358;51.094;6.760;2023-02-20T03:45:22;101740.00;;;2.19;100.00
70015;BME280;57358;51.094;6.760;2023-02-20T03:47:56;101867.72;;;2.83;100.00
70015;BME280;57358;51.094;6.760;2023-02-20T03:50:24;101833.22;;;2.65;100.00
70015;BME280;57358;51.094;6.760;2023-02-20T03:53:10;101826.31;;;2.55;100.00
70015;BME280;57358;51.094;6.760;2023-02-20T03:55:36;101995.63;;;3.49;100.00
70015;BME280;57358;51.094;6.760;2023-02-20T03:58:06;101863.44;;;2.63;100.00
70015;BME280;57358;51.094;6.760;2023-02-20T04:00:38;101980.06;;;3.18;100.00
70015;BME280;57358;51.094;6.760;2023-02-20T04:03:11;101886.78;;;2.69;100.00
70015;BME280;57358;51.094;6.760;2023-02-20T04:05:42;101763.28;;;1.94;100.00
70015;BME280;57358;51.094;6.760;2023-02-20T04:08:13;101955.00;;;3.02;100.00
70015;BME280;57358;51.094;6.760;2023-02-20T04:10:56;101962.78;;;2.96;100.00
70015;BME280;57358;51.094;6.760;2023-02-20T04:13:28;101963.66;;;2.92;100.00
70015;BME280;57358;51.094;6.760;2023-02-20T04:15:58;101961.91;;;2.72;100.00
70015;BME280;57358;51.094;6.760;2023-02-20T04:18:26;101973.19;;;2.84;100.00
70015;BME280;57358;51.094;6.760;2023-02-20T04:20:55;101996.53;;;2.97;100.00
70015;BME280;57358;51.094;6.760;2023-02-20T04:23:24;101925.66;;;2.51;100.00
70015;BME280;57358;51.094;6.760;2023-02-20T04:26:07;101999.97;;;2.96;100.00
70015;BME280;57358;51.094;6.760;2023-02-20T04:28:34;101986.13;;;2.96;100.00
70015;BME280;57358;51.094;6.760;2023-02-20T04:31:01;101980.94;;;2.77;100.00
70015;BME280;57358;51.094;6.760;2023-02-20T04:33:28;101796.06;;;1.88;100.00
70015;BME280;57358;51.094;6.760;2023-02-20T04:35:54;101987.00;;;3.07;100.00
70015;BME280;57358;51.094;6.760;2023-02-20T04:38:23;101948.13;;;2.79;100.00
70015;BME280;57358;51.094;6.760;2023-02-20T04:40:50;101878.13;;;2.39;100.00
70015;BME280;57358;51.094;6.760;2023-02-20T04:43:17;101795.22;;;1.95;100.00
70015;BME280;57358;51.094;6.760;2023-02-20T04:45:43;101775.34;;;1.75;100.00
70015;BME280;57358;51.094;6.760;2023-02-20T04:48:10;101985.28;;;3.03;100.00
70015;BME280;57358;51.094;6.760;2023-02-20T04:50:36;101771.03;;;1.77;100.00
70015;BME280;57358;51.094;6.760;2023-02-20T04:53:03;101922.19;;;2.63;100.00
70015;BME280;57358;51.094;6.760;2023-02-20T04:55:29;101926.50;;;2.62;100.00
70015;BME280;57358;51.094;6.760;2023-02-20T04:57:56;101722.63;;;1.32;100.00
70015;BME280;57358;51.094;6.760;2023-02-20T05:00:25;101983.56;;;2.87;100.00
70015;BME280;57358;51.094;6.760;2023-02-20T05:02:51;101943.78;;;2.62;100.00
70015;BME280;57358;51.094;6.760;2023-02-20T05:05:24;101799.47;;;1.61;100.00
70015;BME280;57358;51.094;6.760;2023-02-20T05:08:03;101961.91;;;2.66;100.00
70015;BME280;57358;51.094;6.760;2023-02-20T05:10:32;101919.59;;;2.46;100.00
70015;BME280;57358;51.094;6.760;2023-02-20T05:12:59;101948.94;;;2.42;100.00
70015;BME280;57358;51.094;6.760;2023-02-20T05:15:26;101989.56;;;2.72;100.00
70015;BME280;57358;51.094;6.760;2023-02-20T05:17:53;101946.34;;;2.52;100.00
70015;BME280;57358;51.094;6.760;2023-02-20T05:20:20;101961.94;;;2.63;100.00
70015;BME280;57358;51.094;6.760;2023-02-20T05:22:47;101974.91;;;2.82;100.00
70015;BME280;57358;51.094;6.760;2023-02-20T05:25:14;101974.91;;;2.88;100.00
70015;BME280;57358;51.094;6.760;2023-02-20T05:27:40;101914.41;;;2.52;100.00
70015;BME280;57358;51.094;6.760;2023-02-20T05:30:08;101967.13;;;2.92;100.00
70015;BME280;57358;51.094;6.760;2023-02-20T05:32:36;101992.19;;;2.90;100.00
70015;BME280;57358;51.094;6.760;2023-02-20T05:35:02;101757.19;;;1.62;100.00
70015;BME280;57358;51.094;6.760;2023-02-20T05:37:30;101900.59;;;2.47;100.00
70015;BME280;57358;51.094;6.760;2023-02-20T05:39:59;101923.94;;;2.67;100.00
70015;BME280;57358;51.094;6.760;2023-02-20T05:42:25;101918.75;;;2.67;100.00
70015;BME280;57358;51.094;6.760;2023-02-20T05:44:51;101952.41;;;2.80;100.00
70015;BME280;57358;51.094;6.760;2023-02-20T05:47:18;101842.72;;;2.22;100.00
70015;BME280;57358;51.094;6.760;2023-02-20T05:49:45;101824.56;;;2.12;100.00
70015;BME280;57358;51.094;6.760;2023-02-20T05:52:11;101959.34;;;2.91;100.00
70015;BME280;57358;51.094;6.760;2023-02-20T05:54:39;101869.47;;;2.34;100.00
70015;BME280;57358;51.094;6.760;2023-02-20T05:57:07;101923.91;;;2.71;100.00
70015;BME280;57358;51.094;6.760;2023-02-20T05:59:33;101956.75;;;2.83;100.00
70015;BME280;57358;51.094;6.760;2023-02-20T06:02:00;101956.75;;;2.92;100.00
70015;BME280;57358;51.094;6.760;2023-02-20T06:04:28;101942.94;;;2.93;100.00
70015;BME280;57358;51.094;6.760;2023-02-20T06:06:54;101859.13;;;2.47;100.00
70015;BME280;57358;51.094;6.760;2023-02-20T06:09:21;101728.75;;;1.74;100.00
70015;BME280;57358;51.094;6.760;2023-02-20T06:11:50;101946.38;;;3.03;100.00
70015;BME280;57358;51.094;6.760;2023-02-20T06:14:17;101891.94;;;2.94;100.00
70015;BME280;57358;51.094;6.760;2023-02-20T06:16:45;101949.78;;;3.34;100.00
70015;BME280;57358;51.094;6.760;2023-02-20T06:19:20;101948.06;;;3.32;100.00
70015;BME280;57358;51.094;6.760;2023-02-20T06:21:48;101807.31;;;2.51;100.00
70015;BME280;57358;51.094;6.760;2023-02-20T06:24:16;101888.47;;;3.01;100.00
70015;BME280;57358;51.094;6.760;2023-02-20T06:26:43;101916.97;;;3.18;100.00
70015;BME280;57358;51.094;6.760;2023-02-20T06:29:10;101956.66;;;3.45;100.00
70015;BME280;57358;51.094;6.760;2023-02-20T06:31:37;101959.25;;;3.62;100.00
70015;BME280;57358;51.094;6.760;2023-02-20T06:34:03;101867.69;;;3.12;100.00
70015;BME280;57358;51.094;6.760;2023-02-20T06:36:34;101958.34;;;3.64;100.00
70015;BME280;57358;51.094;6.760;2023-02-20T06:39:02;101960.94;;;3.73;100.00
70015;BME280;57358;51.094;6.760;2023-02-20T06:41:28;101842.63;;;3.08;100.00
70015;BME280;57358;51.094;6.760;2023-02-20T06:43:55;101760.69;;;2.53;100.00
70015;BME280;57358;51.094;6.760;2023-02-20T06:46:22;101931.59;;;3.48;100.00
70015;BME280;57358;51.094;6.760;2023-02-20T06:48:51;101972.22;;;3.63;100.00
70015;BME280;57358;51.094;6.760;2023-02-20T06:51:19;101885.84;;;3.03;100.00
70015;BME280;57358;51.094;6.760;2023-02-20T06:53:46;101944.56;;;3.40;100.00
70015;BME280;57358;51.094;6.760;2023-02-20T06:56:19;101990.34;;;3.75;100.00
70015;BME280;57358;51.094;6.760;2023-02-20T06:58:46;101964.38;;;3.74;100.00
70015;BME280;57358;51.094;6.760;2023-02-20T07:01:14;102030.06;;;4.08;100.00
70015;BME280;57358;51.094;6.760;2023-02-20T07:03:40;101985.78;;;4.28;100.00
70015;BME280;57358;51.094;6.760;2023-02-20T07:06:07;101990.91;;;4.45;100.00
70015;BME280;57358;51.094;6.760;2023-02-20T07:08:33;101983.88;;;4.61;100.00
70015;BME280;57358;51.094;6.760;2023-02-20T07:11:00;101967.47;;;4.47;100.00
70015;BME280;57358;51.094;6.760;2023-02-20T07:13:26;101993.38;;;4.64;100.00
70015;BME280;57358;51.094;6.760;2023-02-20T07:15:53;101965.63;;;4.67;100.00
70015;BME280;57358;51.094;6.760;2023-02-20T07:18:22;101964.75;;;4.70;100.00
70015;BME280;57358;51.094;6.760;2023-02-20T07:20:53;101961.28;;;4.68;100.00
70015;BME280;57358;51.094;6.760;2023-02-20T07:23:21;101883.69;;;4.15;100.00
70015;BME280;57358;51.094;6.760;2023-02-20T07:25:47;101996.69;;;4.87;100.00
70015;BME280;57358;51.094;6.760;2023-02-20T07:28:16;101992.34;;;4.89;100.00
70015;BME280;57358;51.094;6.760;2023-02-20T07:30:44;101985.44;;;4.84;100.00
70015;BME280;57358;51.094;6.760;2023-02-20T07:33:14;101948.34;;;4.60;100.00
70015;BME280;57358;51.094;6.760;2023-02-20T07:35:40;101963.09;;;4.56;100.00
70015;BME280;57358;51.094;6.760;2023-02-20T07:38:07;101943.28;;;4.43;100.00
70015;BME280;57358;51.094;6.760;2023-02-20T07:40:34;101774.91;;;3.66;100.00
70015;BME280;57358;51.094;6.760;2023-02-20T07:43:00;101971.59;;;4.80;100.00
70015;BME280;57358;51.094;6.760;2023-02-20T07:45:27;101957.78;;;4.72;100.00
70015;BME280;57358;51.094;6.760;2023-02-20T07:47:53;101862.00;;;4.15;100.00
70015;BME280;57358;51.094;6.760;2023-02-20T07:50:20;101911.09;;;4.56;100.00
70015;BME280;57358;51.094;6.760;2023-02-20T07:52:46;101924.94;;;4.63;100.00
70015;BME280;57358;51.094;6.760;2023-02-20T07:55:16;101989.59;;;5.09;100.00
70015;BME280;57358;51.094;6.760;2023-02-20T07:57:47;101979.06;;;5.20;100.00
70015;BME280;57358;51.094;6.760;2023-02-20T08:00:16;101980.81;;;5.19;100.00
70015;BME280;57358;51.094;6.760;2023-02-20T08:02:43;101928.97;;;4.99;100.00
70015;BME280;57358;51.094;6.760;2023-02-20T08:05:10;101976.38;;;5.29;100.00
70015;BME280;57358;51.094;6.760;2023-02-20T08:07:37;101883.28;;;4.69;100.00
70015;BME280;57358;51.094;6.760;2023-02-20T08:10:04;101988.44;;;5.36;100.00
70015;BME280;57358;51.094;6.760;2023-02-20T08:12:31;101927.28;;;4.91;100.00
70015;BME280;57358;51.094;6.760;2023-02-20T08:14:57;101755.63;;;3.99;100.00
70015;BME280;57358;51.094;6.760;2023-02-20T08:17:24;101977.09;;;5.44;100.00
70015;BME280;57358;51.094;6.760;2023-02-20T08:20:03;101915.84;;;5.09;100.00
70015;BME280;57358;51.094;6.760;2023-02-20T08:22:29;101954.69;;;5.29;100.00
70015;BME280;57358;51.094;6.760;2023-02-20T08:25:06;101768.47;;;4.19;100.00
70015;BME280;57358;51.094;6.760;2023-02-20T08:27:33;101987.53;;;5.42;100.00
70015;BME280;57358;51.094;6.760;2023-02-20T08:30:20;101984.16;;;5.34;100.00
70015;BME280;57358;51.094;6.760;2023-02-20T08:32:50;101985.69;;;5.53;100.00
70015;BME280;57358;51.094;6.760;2023-02-20T08:35:17;101949.53;;;5.21;100.00
70015;BME280;57358;51.094;6.760;2023-02-20T08:37:45;101980.56;;;5.44;100.00
70015;BME280;57358;51.094;6.760;2023-02-20T08:40:12;101933.13;;;5.16;100.00
70015;BME280;57358;51.094;6.760;2023-02-20T08:42:38;101938.34;;;5.16;100.00
70015;BME280;57358;51.094;6.760;2023-02-20T08:45:06;101970.16;;;5.46;100.00
70015;BME280;57358;51.094;6.760;2023-02-20T08:47:33;101989.09;;;5.58;100.00
70015;BME280;57358;51.094;6.760;2023-02-20T08:50:00;101963.97;;;5.56;100.00
70015;BME280;57358;51.094;6.760;2023-02-20T08:52:27;101928.63;;;5.32;100.00
70015;BME280;57358;51.094;6.760;2023-02-20T08:54:53;101917.31;;;5.36;100.00
70015;BME280;57358;51.094;6.760;2023-02-20T08:57:20;101935.38;;;5.50;100.00
70015;BME280;57358;51.094;6.760;2023-02-20T08:59:46;101743.94;;;4.47;100.00
70015;BME280;57358;51.094;6.760;2023-02-20T09:02:18;101968.84;;;5.84;100.00
70015;BME280;57358;51.094;6.760;2023-02-20T09:04:45;101972.25;;;5.87;100.00
70015;BME280;57358;51.094;6.760;2023-02-20T09:07:12;101976.69;;;5.80;100.00
70015;BME280;57358;51.094;6.760;2023-02-20T09:09:41;101964.53;;;5.81;100.00
70015;BME280;57358;51.094;6.760;2023-02-20T09:12:10;101936.00;;;5.72;100.00
70015;BME280;57358;51.094;6.760;2023-02-20T09:14:37;101910.81;;;5.72;100.00
70015;BME280;57358;51.094;6.760;2023-02-20T09:17:04;101927.97;;;5.87;100.00
70015;BME280;57358;51.094;6.760;2023-02-20T09:19:31;101955.69;;;5.97;100.00
70015;BME280;57358;51.094;6.760;2023-02-20T09:21:58;101932.41;;;5.82;100.00
70015;BME280;57358;51.094;6.760;2023-02-20T09:24:24;101919.06;;;6.07;100.00
70015;BME280;57358;51.094;6.760;2023-02-20T09:26:53;101963.94;;;6.29;100.00
70015;BME280;57358;51.094;6.760;2023-02-20T09:29:22;101958.50;;;6.46;100.00
70015;BME280;57358;51.094;6.760;2023-02-20T09:31:49;101901.66;;;6.10;100.00
70015;BME280;57358;51.094;6.760;2023-02-20T09:34:15;101855.34;;;5.66;100.00
70015;BME280;57358;51.094;6.760;2023-02-20T09:36:42;101896.53;;;6.03;100.00
70015;BME280;57358;51.094;6.760;2023-02-20T09:39:08;101974.09;;;6.49;100.00
70015;BME280;57358;51.094;6.760;2023-02-20T09:44:42;101979.28;;;6.52;100.00
70015;BME280;57358;51.094;6.760;2023-02-20T09:49:59;101981.91;;;6.49;100.00
70015;BME280;57358;51.094;6.760;2023-02-20T09:52:28;101971.91;;;6.78;100.00
70015;BME280;57358;51.094;6.760;2023-02-20T09:55:07;101891.97;;;6.18;100.00
70015;BME280;57358;51.094;6.760;2023-02-20T09:57:37;101987.66;;;6.71;100.00
70015;BME280;57358;51.094;6.760;2023-02-20T10:00:10;101974.59;;;6.72;100.00
70015;BME280;57358;51.094;6.760;2023-02-20T10:02:50;101975.38;;;6.79;100.00
70015;BME280;57358;51.094;6.760;2023-02-20T10:05:25;101948.00;;;6.49;100.00
70015;BME280;57358;51.094;6.760;2023-02-20T10:07:53;101851.38;;;6.02;100.00
70015;BME280;57358;51.094;6.760;2023-02-20T10:15:47;101961.47;;;6.77;100.00
70015;BME280;57358;51.094;6.760;2023-02-20T10:21:35;101903.31;;;6.72;100.00
70015;BME280;57358;51.094;6.760;2023-02-20T10:26:53;101944.41;;;7.10;100.00
70015;BME280;57358;51.094;6.760;2023-02-20T10:29:26;101849.53;;;6.63;100.00
70015;BME280;57358;51.094;6.760;2023-02-20T10:32:02;101944.75;;;7.40;100.00
70015;BME280;57358;51.094;6.760;2023-02-20T10:34:35;101953.41;;;7.42;100.00
70015;BME280;57358;51.094;6.760;2023-02-20T10:37:15;101872.50;;;6.94;100.00
70015;BME280;57358;51.094;6.760;2023-02-20T10:39:49;101910.28;;;7.19;100.00
70015;BME280;57358;51.094;6.760;2023-02-20T10:42:26;101894.63;;;7.19;100.00
70015;BME280;57358;51.094;6.760;2023-02-20T10:44:59;101804.56;;;6.50;100.00
70015;BME280;57358;51.094;6.760;2023-02-20T10:47:33;101847.81;;;6.64;100.00
70015;BME280;57358;51.094;6.760;2023-02-20T10:50:07;101905.28;;;7.07;100.00
70015;BME280;57358;51.094;6.760;2023-02-20T10:52:38;101950.81;;;7.41;100.00
70015;BME280;57358;51.094;6.760;2023-02-20T10:55:17;101899.44;;;6.96;100.00
70015;BME280;57358;51.094;6.760;2023-02-20T10:58:03;101942.03;;;7.45;100.00
70015;BME280;57358;51.094;6.760;2023-02-20T11:00:55;101928.59;;;7.65;100.00
70015;BME280;57358;51.094;6.760;2023-02-20T11:03:33;101744.31;;;6.64;100.00
70015;BME280;57358;51.094;6.760;2023-02-20T11:06:04;101875.06;;;7.42;100.00
70015;BME280;57358;51.094;6.760;2023-02-20T11:08:32;101872.28;;;7.50;100.00
70015;BME280;57358;51.094;6.760;2023-02-20T11:11:20;101907.94;;;7.52;100.00
70015;BME280;57358;51.094;6.760;2023-02-20T11:13:49;101913.78;;;7.64;100.00
70015;BME280;57358;51.094;6.760;2023-02-20T11:16:29;101923.09;;;7.77;100.00
70015;BME280;57358;51.094;6.760;2023-02-20T11:19:03;101795.78;;;7.01;100.00
70015;BME280;57358;51.094;6.760;2023-02-20T11:21:33;101683.16;;;6.35;100.00
70015;BME280;57358;51.094;6.760;2023-02-20T11:24:20;101892.31;;;7.49;100.00
70015;BME280;57358;51.094;6.760;2023-02-20T11:26:55;101919.53;;;7.81;100.00
70015;BME280;57358;51.094;6.760;2023-02-20T11:29:22;101922.91;;;7.88;100.00
70015;BME280;57358;51.094;6.760;2023-02-20T11:31:49;101676.69;;;6.53;100.00
70015;BME280;57358;51.094;6.760;2023-02-20T11:34:19;101857.94;;;7.69;100.00
70015;BME280;57358;51.094;6.760;2023-02-20T11:36:51;101878.84;;;7.69;100.00
70015;BME280;57358;51.094;6.760;2023-02-20T11:39:28;101855.53;;;7.60;100.00
70015;BME280;57358;51.094;6.760;2023-02-20T11:42:17;101887.03;;;7.93;100.00
70015;BME280;57358;51.094;6.760;2023-02-20T11:45:10;101875.31;;;7.72;100.00
70015;BME280;57358;51.094;6.760;2023-02-20T11:47:36;101791.69;;;7.31;100.00
70015;BME280;57358;51.094;6.760;2023-02-20T11:50:12;101838.97;;;7.59;100.00
70015;BME280;57358;51.094;6.760;2023-02-20T11:52:55;101848.31;;;7.71;100.00
70015;BME280;57358;51.094;6.760;2023-02-20T11:55:24;101816.84;;;7.35;100.00
70015;BME280;57358;51.094;6.760;2023-02-20T11:57:52;101857.41;;;7.53;100.00
70015;BME280;57358;51.094;6.760;2023-02-20T12:00:27;101885.78;;;7.72;100.00
70015;BME280;57358;51.094;6.760;2023-02-20T12:02:57;101692.59;;;6.85;100.00
70015;BME280;57358;51.094;6.760;2023-02-20T12:10:56;101789.34;;;7.59;100.00
70015;BME280;57358;51.094;6.760;2023-02-20T12:13:26;101781.25;;;7.72;100.00
70015;BME280;57358;51.094;6.760;2023-02-20T12:16:22;101845.59;;;8.15;100.00
70015;BME280;57358;51.094;6.760;2023-02-20T12:21:36;101785.22;;;7.88;100.00
70015;BME280;57358;51.094;6.760;2023-02-20T12:27:15;101757.78;;;7.69;100.00
70015;BME280;57358;51.094;6.760;2023-02-20T12:29:51;101707.13;;;7.37;100.00
70015;BME280;57358;51.094;6.760;2023-02-20T12:35:32;101842.09;;;8.16;100.00
70015;BME280;57358;51.094;6.760;2023-02-20T12:38:16;101817.63;;;8.18;100.00
70015;BME280;57358;51.094;6.760;2023-02-20T12:41:11;101811.41;;;8.23;100.00
70015;BME280;57358;51.094;6.760;2023-02-20T12:49:36;101830.81;;;8.14;100.00
70015;BME280;57358;51.094;6.760;2023-02-20T12:52:26;101777.66;;;7.76;100.00
70015;BME280;57358;51.094;6.760;2023-02-20T13:00:37;101834.75;;;7.94;100.00
70015;BME280;57358;51.094;6.760;2023-02-20T13:03:10;101819.34;;;7.82;100.00
70015;BME280;57358;51.094;6.760;2023-02-20T13:05:44;101711.94;;;7.18;100.00
70015;BME280;57358;51.094;6.760;2023-02-20T13:08:29;101658.59;;;6.89;100.00
70015;BME280;57358;51.094;6.760;2023-02-20T13:11:05;101743.41;;;7.10;100.00
70015;BME280;57358;51.094;6.760;2023-02-20T13:13:44;101743.75;;;6.93;100.00
70015;BME280;57358;51.094;6.760;2023-02-20T13:16:22;101788.38;;;7.23;100.00
70015;BME280;57358;51.094;6.760;2023-02-20T13:19:05;101775.00;;;7.40;100.00
70015;BME280;57358;51.094;6.760;2023-02-20T13:21:36;101644.25;;;6.68;100.00
70015;BME280;57358;51.094;6.760;2023-02-20T13:26:50;101804.28;;;7.54;100.00
70015;BME280;57358;51.094;6.760;2023-02-20T13:29:20;101788.72;;;7.48;100.00
70015;BME280;57358;51.094;6.760;2023-02-20T13:31:50;101742.38;;;7.17;100.00
70015;BME280;57358;51.094;6.760;2023-02-20T13:36:46;101775.09;;;7.74;100.00
70015;BME280;57358;51.094;6.760;2023-02-20T13:49:54;101730.38;;;7.87;100.00
70015;BME280;57358;51.094;6.760;2023-02-20T13:55:21;101660.19;;;7.71;100.00
70015;BME280;57358;51.094;6.760;2023-02-20T13:57:54;101698.44;;;8.10;100.00
70015;BME280;57358;51.094;6.760;2023-02-20T14:03:11;101625.31;;;7.74;100.00
70015;BME280;57358;51.094;6.760;2023-02-20T14:05:39;101703.81;;;8.38;100.00
70015;BME280;57358;51.094;6.760;2023-02-20T14:08:05;101641.34;;;7.93;100.00
70015;BME280;57358;51.094;6.760;2023-02-20T14:10:34;101701.91;;;8.45;100.00
70015;BME280;57358;51.094;6.760;2023-02-20T14:13:05;101592.75;;;7.86;100.00
70015;BME280;57358;51.094;6.760;2023-02-20T14:15:51;101550.81;;;7.57;100.00
70015;BME280;57358;51.094;6.760;2023-02-20T14:18:23;101641.50;;;8.19;100.00
70015;BME280;57358;51.094;6.760;2023-02-20T14:21:04;101666.59;;;8.27;100.00
70015;BME280;57358;51.094;6.760;2023-02-20T14:23:33;101627.75;;;8.13;100.00
70015;BME280;57358;51.094;6.760;2023-02-20T14:26:03;101694.94;;;8.44;100.00
70015;BME280;57358;51.094;6.760;2023-02-20T14:28:33;101701.88;;;8.12;100.00
70015;BME280;57358;51.094;6.760;2023-02-20T14:31:04;101702.13;;;8.01;100.00
70015;BME280;57358;51.094;6.760;2023-02-20T14:33:31;101696.91;;;8.01;100.00
70015;BME280;57358;51.094;6.760;2023-02-20T14:39:11;101697.66;;;8.06;100.00